createdAt,value
2023-08-14T00:02:05.229Z,2.58
2023-08-14T00:04:32.618Z,2.65
2023-08-14T00:06:59.998Z,3.10
2023-08-14T00:09:27.343Z,2.95
2023-08-14T00:11:54.771Z,3.43
2023-08-14T00:14:22.296Z,3.35
2023-08-14T00:16:49.617Z,3.30
2023-08-14T00:19:16.980Z,2.78
2023-08-14T00:21:44.272Z,3.40
2023-08-14T00:24:11.604Z,3.80
2023-08-14T00:26:38.950Z,3.10
2023-08-14T00:29:06.436Z,3.28
2023-08-14T00:31:33.917Z,3.03
2023-08-14T00:34:01.307Z,3.35
2023-08-14T00:36:28.758Z,3.27
2023-08-14T00:38:56.094Z,3.28
2023-08-14T00:41:23.496Z,3.20
2023-08-14T00:43:52.706Z,3.72
2023-08-14T00:46:20.594Z,3.90
2023-08-14T00:48:48.049Z,3.20
2023-08-14T00:51:15.497Z,3.67
2023-08-14T00:53:43.231Z,3.55
2023-08-14T00:56:10.611Z,3.63
2023-08-14T00:58:37.978Z,3.60
2023-08-14T01:01:05.399Z,3.73
2023-08-14T01:03:33.038Z,3.92
2023-08-14T01:06:00.420Z,3.67
2023-08-14T01:08:28.159Z,3.75
2023-08-14T01:11:04.457Z,3.80
2023-08-14T01:13:34.933Z,3.80
2023-08-14T01:16:04.735Z,3.92
2023-08-14T01:18:33.090Z,4.00
2023-08-14T01:21:13.318Z,4.07
2023-08-14T01:23:46.936Z,3.72
2023-08-14T01:26:14.316Z,4.07
2023-08-14T01:28:42.671Z,2.90
2023-08-14T01:31:10.141Z,3.60
2023-08-14T01:33:37.472Z,4.03
2023-08-14T01:36:17.510Z,4.40
2023-08-14T01:38:57.209Z,4.43
2023-08-14T01:41:35.716Z,4.47
2023-08-14T01:44:04.621Z,4.40
2023-08-14T01:46:33.387Z,4.65
2023-08-14T01:49:01.125Z,4.65
2023-08-14T01:51:28.660Z,4.37
2023-08-14T01:53:56.557Z,4.95
2023-08-14T01:56:23.899Z,5.30
2023-08-14T01:58:51.288Z,5.45
2023-08-14T02:01:18.614Z,4.03
2023-08-14T02:03:46.112Z,4.27
2023-08-14T02:06:13.593Z,5.32
2023-08-14T02:08:40.910Z,4.53
2023-08-14T02:11:09.046Z,3.97
2023-08-14T02:13:37.515Z,4.60
2023-08-14T02:16:05.148Z,4.33
2023-08-14T02:18:32.791Z,4.25
2023-08-14T02:21:00.140Z,4.97
2023-08-14T02:23:27.518Z,5.28
2023-08-14T02:25:57.362Z,5.45
2023-08-14T02:28:24.691Z,5.20
2023-08-14T02:30:52.206Z,4.72
2023-08-14T02:33:19.557Z,4.50
2023-08-14T02:35:47.113Z,6.00
2023-08-14T02:38:16.620Z,4.90
2023-08-14T02:40:44.783Z,5.43
2023-08-14T02:43:12.209Z,4.90
2023-08-14T02:45:40.065Z,5.13
2023-08-14T02:48:07.473Z,5.88
2023-08-14T02:50:34.910Z,6.55
2023-08-14T02:53:02.265Z,5.73
2023-08-14T02:55:29.588Z,6.28
2023-08-14T02:57:58.413Z,6.10
2023-08-14T03:00:25.861Z,6.80
2023-08-14T03:02:53.247Z,7.45
2023-08-14T03:05:20.744Z,7.13
2023-08-14T03:07:48.133Z,6.68
2023-08-14T03:10:15.587Z,6.80
2023-08-14T03:12:43.017Z,6.93
2023-08-14T03:15:10.592Z,6.97
2023-08-14T03:17:38.032Z,7.30
2023-08-14T03:20:06.063Z,6.72
2023-08-14T03:22:33.491Z,6.40
2023-08-14T03:25:00.918Z,6.47
2023-08-14T03:27:28.504Z,5.88
2023-08-14T03:29:55.925Z,6.20
2023-08-14T03:32:23.332Z,6.28
2023-08-14T03:34:50.999Z,6.28
2023-08-14T03:37:18.714Z,7.05
2023-08-14T03:39:47.396Z,6.95
2023-08-14T03:42:15.865Z,7.10
2023-08-14T03:44:43.394Z,6.90
2023-08-14T03:47:10.691Z,6.00
2023-08-14T03:49:38.000Z,5.35
2023-08-14T03:52:05.571Z,7.20
2023-08-14T03:54:34.280Z,6.47
2023-08-14T03:57:01.767Z,6.45
2023-08-14T03:59:30.778Z,6.20
2023-08-14T04:01:58.155Z,6.93
2023-08-14T04:04:25.761Z,5.95
2023-08-14T04:06:53.171Z,5.93
2023-08-14T04:09:20.545Z,6.68
2023-08-14T04:11:48.059Z,5.72
2023-08-14T04:14:15.453Z,6.22
2023-08-14T04:16:45.215Z,5.75
2023-08-14T04:19:14.648Z,5.63
2023-08-14T04:21:42.215Z,5.13
2023-08-14T04:24:09.901Z,6.05
2023-08-14T04:26:40.713Z,5.70
2023-08-14T04:29:09.552Z,7.10
2023-08-14T04:31:37.266Z,6.17
2023-08-14T04:34:05.133Z,6.65
2023-08-14T04:36:34.697Z,6.68
2023-08-14T04:39:04.513Z,5.93
2023-08-14T04:41:32.286Z,5.68
2023-08-14T04:43:59.669Z,5.93
2023-08-14T04:46:48.950Z,4.93
2023-08-14T04:49:23.380Z,5.50
2023-08-14T04:51:51.382Z,5.78
2023-08-14T04:54:19.381Z,5.82
2023-08-14T04:56:46.818Z,4.73
2023-08-14T04:59:14.234Z,5.10
2023-08-14T05:01:41.680Z,5.00
2023-08-14T05:04:09.148Z,5.45
2023-08-14T05:06:36.663Z,6.10
2023-08-14T05:09:16.028Z,5.50
2023-08-14T05:11:47.813Z,4.90
2023-08-14T05:14:15.189Z,5.30
2023-08-14T05:16:42.550Z,4.95
2023-08-14T05:19:09.943Z,4.90
2023-08-14T05:21:37.255Z,4.90
2023-08-14T05:24:04.768Z,4.60
2023-08-14T05:26:32.148Z,4.13
2023-08-14T05:28:59.531Z,4.45
2023-08-14T05:31:26.991Z,4.85
2023-08-14T05:33:54.351Z,5.13
2023-08-14T05:36:21.663Z,6.00
2023-08-14T05:38:48.990Z,6.28
2023-08-14T05:41:16.257Z,5.60
2023-08-14T05:43:43.552Z,5.60
2023-08-14T05:46:10.954Z,5.73
2023-08-14T05:48:38.290Z,5.30
2023-08-14T05:51:05.594Z,5.45
2023-08-14T05:53:32.908Z,5.35
2023-08-14T05:56:00.267Z,5.90
2023-08-14T05:58:27.598Z,6.47
2023-08-14T06:00:55.036Z,5.63
2023-08-14T06:03:29.522Z,5.80
2023-08-14T06:06:05.723Z,5.50
2023-08-14T06:08:33.391Z,6.20
2023-08-14T06:11:00.822Z,6.37
2023-08-14T06:13:28.120Z,5.65
2023-08-14T06:15:55.574Z,6.20
2023-08-14T06:18:22.913Z,6.30
2023-08-14T06:20:52.406Z,6.07
2023-08-14T06:23:20.307Z,6.43
2023-08-14T06:25:47.978Z,6.28
2023-08-14T06:28:15.338Z,5.82
2023-08-14T06:30:42.682Z,6.47
2023-08-14T06:33:10.171Z,7.00
2023-08-14T06:35:37.768Z,6.87
2023-08-14T06:38:05.288Z,6.97
2023-08-14T06:40:32.787Z,6.13
2023-08-14T06:43:00.580Z,6.47
2023-08-14T06:45:28.266Z,6.15
2023-08-14T06:47:55.628Z,6.80
2023-08-14T06:50:24.446Z,6.15
2023-08-14T06:52:52.129Z,6.57
2023-08-14T06:55:19.470Z,6.60
2023-08-14T06:57:46.793Z,5.97
2023-08-14T07:00:14.445Z,6.00
2023-08-14T07:02:42.176Z,6.03
2023-08-14T07:05:11.322Z,5.22
2023-08-14T07:07:39.230Z,5.65
2023-08-14T07:10:06.827Z,5.60
2023-08-14T07:12:34.356Z,5.37
2023-08-14T07:15:01.966Z,5.72
2023-08-14T07:17:29.460Z,4.93
2023-08-14T07:19:56.865Z,5.22
2023-08-14T07:22:24.312Z,4.75
2023-08-14T07:24:51.636Z,4.90
2023-08-14T07:27:19.330Z,3.97
2023-08-14T07:29:47.255Z,4.10
2023-08-14T07:32:14.642Z,4.05
2023-08-14T07:34:41.961Z,4.53
2023-08-14T07:37:09.651Z,3.53
2023-08-14T07:39:37.023Z,3.60
2023-08-14T07:42:04.390Z,3.45
2023-08-14T07:44:31.713Z,3.00
2023-08-14T07:46:59.080Z,3.25
2023-08-14T07:49:26.412Z,4.47
2023-08-14T07:51:53.733Z,4.20
2023-08-14T07:54:21.120Z,4.20
2023-08-14T07:56:50.955Z,4.45
2023-08-14T07:59:19.326Z,4.70
2023-08-14T08:01:46.785Z,3.70
2023-08-14T08:04:26.683Z,4.10
2023-08-14T08:06:54.361Z,3.72
2023-08-14T08:09:21.695Z,4.00
2023-08-14T08:11:50.171Z,3.25
2023-08-14T08:14:17.863Z,4.20
2023-08-14T08:16:45.988Z,3.97
2023-08-14T08:19:13.417Z,3.90
2023-08-14T08:21:40.958Z,3.85
2023-08-14T08:24:08.596Z,3.85
2023-08-14T08:26:36.161Z,3.30
2023-08-14T08:29:03.801Z,3.20
2023-08-14T08:31:31.234Z,3.38
2023-08-14T08:33:58.622Z,2.83
2023-08-14T08:36:25.947Z,3.40
2023-08-14T08:38:53.294Z,3.10
2023-08-14T08:41:27.703Z,3.38
2023-08-14T08:44:01.489Z,3.45
2023-08-14T08:46:29.368Z,3.58
2023-08-14T08:48:56.817Z,3.20
2023-08-14T08:51:25.526Z,3.67
2023-08-14T08:53:52.908Z,3.67
2023-08-14T08:56:21.089Z,3.60
2023-08-14T08:58:48.918Z,3.65
2023-08-14T09:01:16.458Z,3.70
2023-08-14T09:03:44.096Z,3.40
2023-08-14T09:06:11.490Z,3.20
2023-08-14T09:08:38.968Z,3.10
2023-08-14T09:11:06.293Z,3.20
2023-08-14T09:13:33.646Z,3.42
2023-08-14T09:16:04.807Z,2.70
2023-08-14T09:18:32.663Z,3.42
2023-08-14T09:21:00.116Z,3.00
2023-08-14T09:23:27.548Z,3.25
2023-08-14T09:25:54.919Z,3.40
2023-08-14T09:28:23.569Z,4.10
2023-08-14T09:30:50.913Z,3.00
2023-08-14T09:33:18.254Z,3.15
2023-08-14T09:35:53.560Z,3.28
2023-08-14T09:38:21.405Z,3.10
2023-08-14T09:40:48.712Z,3.77
2023-08-14T09:43:16.154Z,3.13
2023-08-14T09:45:43.568Z,2.83
2023-08-14T09:48:11.059Z,3.05
2023-08-14T09:50:38.463Z,2.83
2023-08-14T09:53:06.170Z,2.60
2023-08-14T09:55:35.093Z,2.97
2023-08-14T09:58:02.499Z,2.35
2023-08-14T10:00:35.446Z,3.22
2023-08-14T10:03:05.160Z,3.10
2023-08-14T10:05:32.720Z,2.33
2023-08-14T10:08:00.141Z,2.33
2023-08-14T10:10:29.026Z,2.50
2023-08-14T10:12:59.199Z,2.72
2023-08-14T10:15:27.472Z,2.80
2023-08-14T10:17:59.982Z,3.10
2023-08-14T10:20:29.494Z,2.25
2023-08-14T10:22:56.990Z,2.90
2023-08-14T10:25:24.609Z,3.08
2023-08-14T10:27:52.645Z,2.40
2023-08-14T10:30:24.110Z,3.10
2023-08-14T10:32:52.341Z,2.92
2023-08-14T10:35:21.391Z,2.22
2023-08-14T10:38:00.088Z,2.22
2023-08-14T10:40:32.204Z,1.65
2023-08-14T10:43:00.212Z,1.63
2023-08-14T10:45:28.455Z,1.80
2023-08-14T10:48:00.760Z,1.20
2023-08-14T10:50:30.301Z,1.30
2023-08-14T10:52:58.165Z,1.23
2023-08-14T10:55:26.701Z,1.83
2023-08-14T10:57:56.467Z,1.55
2023-08-14T11:00:25.426Z,1.48
2023-08-14T11:03:13.349Z,1.52
2023-08-14T11:05:41.322Z,1.80
2023-08-14T11:08:09.713Z,1.57
2023-08-14T11:10:37.053Z,1.65
2023-08-14T11:13:07.858Z,1.20
2023-08-14T11:15:36.306Z,1.67
2023-08-14T11:18:06.719Z,1.17
2023-08-14T11:20:34.643Z,1.30
2023-08-14T11:23:02.052Z,1.40
2023-08-14T11:25:29.494Z,1.40
2023-08-14T11:27:57.464Z,1.55
2023-08-14T11:30:26.831Z,1.77
2023-08-14T11:32:55.792Z,1.53
2023-08-14T11:37:55.510Z,1.35
2023-08-14T11:40:22.887Z,1.40
2023-08-14T11:42:50.302Z,1.60
2023-08-14T11:45:17.678Z,1.33
2023-08-14T11:47:48.632Z,1.10
2023-08-14T11:50:16.833Z,1.20
2023-08-14T11:52:44.617Z,1.40
2023-08-14T11:55:11.968Z,1.40
2023-08-14T11:57:40.024Z,1.30
2023-08-14T12:00:11.738Z,1.40
2023-08-14T12:02:40.257Z,1.90
2023-08-14T12:05:08.234Z,1.60
2023-08-14T12:07:36.191Z,1.35
2023-08-14T12:10:11.276Z,1.10
2023-08-14T12:12:48.185Z,1.20
2023-08-14T12:15:24.295Z,1.40
2023-08-14T12:17:52.650Z,1.17
2023-08-14T12:20:22.170Z,1.10
2023-08-14T12:22:59.525Z,1.20
2023-08-14T12:25:30.256Z,1.92
2023-08-14T12:27:57.668Z,1.17
2023-08-14T12:30:24.976Z,1.00
2023-08-14T12:32:52.422Z,1.23
2023-08-14T12:35:19.816Z,1.13
2023-08-14T12:37:47.142Z,1.30
2023-08-14T12:40:14.544Z,0.98
2023-08-14T12:42:41.914Z,1.17
2023-08-14T12:45:09.375Z,1.35
2023-08-14T12:47:36.764Z,1.00
2023-08-14T12:50:04.171Z,0.88
2023-08-14T12:52:31.527Z,0.95
2023-08-14T12:57:29.075Z,0.80
2023-08-14T12:59:56.349Z,1.07
2023-08-14T13:04:57.736Z,0.90
2023-08-14T13:07:29.140Z,1.00
2023-08-14T13:09:56.821Z,1.10
2023-08-14T13:12:24.321Z,1.27
2023-08-14T13:14:51.766Z,1.35
2023-08-14T13:17:19.489Z,1.20
2023-08-14T13:19:47.114Z,1.05
2023-08-14T13:22:16.917Z,1.02
2023-08-14T13:24:44.278Z,1.17
2023-08-14T13:27:11.763Z,1.15
2023-08-14T13:29:39.162Z,1.02
2023-08-14T13:32:06.721Z,1.10
2023-08-14T13:34:34.428Z,1.20
2023-08-14T13:37:01.803Z,1.53
2023-08-14T13:39:29.195Z,1.27
2023-08-14T13:41:56.590Z,1.00
2023-08-14T13:44:23.976Z,1.42
2023-08-14T13:46:51.362Z,1.27
2023-08-14T13:49:18.720Z,1.30
2023-08-14T13:51:47.967Z,1.25
2023-08-14T13:54:15.361Z,1.13
2023-08-14T13:56:42.708Z,1.10
2023-08-14T13:59:10.327Z,1.23
2023-08-14T14:01:37.707Z,1.10
2023-08-14T14:04:07.080Z,1.45
2023-08-14T14:06:34.599Z,1.20
2023-08-14T14:09:01.980Z,1.20
2023-08-14T14:11:29.461Z,1.17
2023-08-14T14:13:56.923Z,1.10
2023-08-14T14:16:24.488Z,1.33
2023-08-14T14:18:51.894Z,1.45
2023-08-14T14:21:19.190Z,1.33
2023-08-14T14:23:46.510Z,1.10
2023-08-14T14:26:13.786Z,1.20
2023-08-14T14:28:41.152Z,1.13
2023-08-14T14:31:08.488Z,1.27
2023-08-14T14:33:35.779Z,1.02
2023-08-14T14:36:03.202Z,1.10
2023-08-14T14:38:30.525Z,1.10
2023-08-14T14:40:58.372Z,1.40
2023-08-14T14:43:25.713Z,1.50
2023-08-14T14:45:53.068Z,1.00
2023-08-14T14:48:20.526Z,1.08
2023-08-14T14:50:54.348Z,1.30
2023-08-14T14:53:21.686Z,1.10
2023-08-14T14:55:49.028Z,1.15
2023-08-14T14:58:16.338Z,1.38
2023-08-14T15:00:43.737Z,1.30
2023-08-14T15:03:14.134Z,1.20
2023-08-14T15:05:41.599Z,1.25
2023-08-14T15:08:08.907Z,1.42
2023-08-14T15:10:39.228Z,1.45
2023-08-14T15:13:06.552Z,1.23
2023-08-14T15:15:33.897Z,1.37
2023-08-14T15:18:01.280Z,1.05
2023-08-14T15:20:28.701Z,1.40
2023-08-14T15:22:56.251Z,1.33
2023-08-14T15:25:23.788Z,1.42
2023-08-14T15:27:51.508Z,1.20
2023-08-14T15:30:18.881Z,1.65
2023-08-14T15:32:46.626Z,1.00
2023-08-14T15:35:14.085Z,1.08
2023-08-14T15:37:41.390Z,1.45
2023-08-14T15:40:09.193Z,1.13
2023-08-14T15:42:36.482Z,1.30
2023-08-14T15:45:08.894Z,1.30
2023-08-14T15:47:37.301Z,0.93
2023-08-14T15:50:04.974Z,1.10
2023-08-14T15:52:32.488Z,1.10
2023-08-14T15:55:00.442Z,1.23
2023-08-14T15:57:28.170Z,1.08
2023-08-14T15:59:55.520Z,0.90
2023-08-14T16:02:23.015Z,1.50
2023-08-14T16:04:50.846Z,1.20
2023-08-14T16:07:24.000Z,1.15
2023-08-14T16:09:52.693Z,1.02
2023-08-14T16:12:20.151Z,1.50
2023-08-14T16:14:47.586Z,1.20
2023-08-14T16:17:15.121Z,1.13
2023-08-14T16:19:42.497Z,0.93
2023-08-14T16:22:09.795Z,1.13
2023-08-14T16:24:39.623Z,1.52
2023-08-14T16:27:07.570Z,1.23
2023-08-14T16:29:34.976Z,1.20
2023-08-14T16:32:02.284Z,1.23
2023-08-14T16:34:29.588Z,0.93
2023-08-14T16:36:56.900Z,1.10
2023-08-14T16:39:24.232Z,1.30
2023-08-14T16:41:51.622Z,1.13
2023-08-14T16:44:21.341Z,1.20
2023-08-14T16:46:48.725Z,1.05
2023-08-14T16:49:16.101Z,1.10
2023-08-14T16:51:43.392Z,1.13
2023-08-14T16:54:10.699Z,1.03
2023-08-14T16:56:39.096Z,1.30
2023-08-14T16:59:06.448Z,0.95
2023-08-14T17:01:33.847Z,1.35
2023-08-14T17:04:03.453Z,1.42
2023-08-14T17:06:30.995Z,1.40
2023-08-14T17:08:58.307Z,1.33
2023-08-14T17:11:26.209Z,1.30
2023-08-14T17:13:53.610Z,1.23
2023-08-14T17:16:21.037Z,1.02
2023-08-14T17:18:48.757Z,1.10
2023-08-14T17:21:16.150Z,1.30
2023-08-14T17:23:43.531Z,1.10
2023-08-14T17:26:10.769Z,1.40
2023-08-14T17:28:38.233Z,0.90
2023-08-14T17:31:05.586Z,1.40
2023-08-14T17:33:32.943Z,1.23
2023-08-14T17:36:00.285Z,1.30
2023-08-14T17:38:27.690Z,1.35
2023-08-14T17:40:55.470Z,1.10
2023-08-14T17:43:22.980Z,1.27
2023-08-14T17:45:50.711Z,1.20
2023-08-14T17:48:18.170Z,1.02
2023-08-14T17:50:50.763Z,1.25
2023-08-14T17:53:18.576Z,0.95
2023-08-14T17:55:45.877Z,1.40
2023-08-14T17:58:13.215Z,1.10
2023-08-14T18:00:46.713Z,1.10
2023-08-14T18:03:14.076Z,1.08
2023-08-14T18:05:41.513Z,1.10
2023-08-14T18:08:08.970Z,1.37
2023-08-14T18:10:36.310Z,1.30
2023-08-14T18:13:03.692Z,1.10
2023-08-14T18:15:30.997Z,1.05
2023-08-14T18:17:58.320Z,1.30
2023-08-14T18:20:25.753Z,1.73
2023-08-14T18:22:53.011Z,1.40
2023-08-14T18:25:20.400Z,1.13
2023-08-14T18:27:47.725Z,1.80
2023-08-14T18:30:15.097Z,1.80
2023-08-14T18:32:42.513Z,1.40
2023-08-14T18:35:10.114Z,1.60
2023-08-14T18:37:37.432Z,1.67
2023-08-14T18:40:05.381Z,1.20
2023-08-14T18:42:34.581Z,1.25
2023-08-14T18:45:01.966Z,1.40
2023-08-14T18:47:30.332Z,1.27
2023-08-14T18:49:57.724Z,3.47
2023-08-14T18:52:25.480Z,13.13
2023-08-14T18:54:52.809Z,1.80
2023-08-14T18:57:20.440Z,1.70
2023-08-14T18:59:48.754Z,1.40
2023-08-14T19:02:16.276Z,1.38
2023-08-14T19:04:44.140Z,1.30
2023-08-14T19:07:12.397Z,3.05
2023-08-14T19:09:39.758Z,2.00
2023-08-14T19:12:08.393Z,1.88
2023-08-14T19:14:36.084Z,1.45
2023-08-14T19:17:03.931Z,1.80
2023-08-14T19:19:31.313Z,1.40
2023-08-14T19:21:58.754Z,2.33
2023-08-14T19:24:26.105Z,2.30
2023-08-14T19:26:53.580Z,2.55
2023-08-14T19:29:21.016Z,2.90
2023-08-14T19:31:48.429Z,2.58
2023-08-14T19:34:15.756Z,2.60
2023-08-14T19:36:43.142Z,4.57
2023-08-14T19:39:10.469Z,5.20
2023-08-14T19:41:37.807Z,3.30
2023-08-14T19:44:05.569Z,2.92
2023-08-14T19:46:33.010Z,2.70
2023-08-14T19:49:00.329Z,2.30
2023-08-14T19:51:27.680Z,2.33
2023-08-14T19:53:54.982Z,2.50
2023-08-14T19:56:22.364Z,2.75
2023-08-14T19:58:49.777Z,2.17
2023-08-14T20:01:17.151Z,2.72
2023-08-14T20:03:44.826Z,2.97
2023-08-14T20:06:12.704Z,2.53
2023-08-14T20:08:40.373Z,2.33
2023-08-14T20:11:07.750Z,2.20
2023-08-14T20:13:35.120Z,2.30
2023-08-14T20:16:02.894Z,2.30
2023-08-14T20:18:30.572Z,2.55
2023-08-14T20:20:58.809Z,2.15
2023-08-14T20:23:26.242Z,1.87
2023-08-14T20:25:54.144Z,2.40
2023-08-14T20:28:21.443Z,1.80
2023-08-14T20:30:48.839Z,1.83
2023-08-14T20:33:16.257Z,1.77
2023-08-14T20:35:44.631Z,2.30
2023-08-14T20:38:12.336Z,2.10
2023-08-14T20:40:40.332Z,2.03
2023-08-14T20:43:11.840Z,3.08
2023-08-14T20:45:39.638Z,2.25
2023-08-14T20:48:07.574Z,2.40
2023-08-14T20:50:35.099Z,2.10
2023-08-14T20:53:02.477Z,2.42
2023-08-14T20:55:29.834Z,2.00
2023-08-14T20:57:57.145Z,2.20
2023-08-14T21:00:24.461Z,2.57
2023-08-14T21:02:52.212Z,2.40
2023-08-14T21:05:19.703Z,2.63
2023-08-14T21:07:47.092Z,2.53
2023-08-14T21:10:14.352Z,2.30
2023-08-14T21:12:41.731Z,2.17
2023-08-14T21:15:09.226Z,2.53
2023-08-14T21:17:36.548Z,2.33
2023-08-14T21:20:05.230Z,2.03
2023-08-14T21:22:32.689Z,2.22
2023-08-14T21:25:00.041Z,2.30
2023-08-14T21:27:30.945Z,2.30
2023-08-14T21:30:01.035Z,2.28
2023-08-14T21:32:28.394Z,2.22
2023-08-14T21:34:55.798Z,2.10
2023-08-14T21:37:23.135Z,2.27
2023-08-14T21:39:50.612Z,2.13
2023-08-14T21:42:17.927Z,2.03
2023-08-14T21:44:45.356Z,2.20
2023-08-14T21:47:12.650Z,2.10
2023-08-14T21:49:39.960Z,2.03
2023-08-14T21:52:07.567Z,2.25
2023-08-14T21:54:35.120Z,2.10
2023-08-14T21:57:02.823Z,2.55
2023-08-14T21:59:31.136Z,2.72
2023-08-14T22:01:58.488Z,2.10
2023-08-14T22:04:25.861Z,2.08
2023-08-14T22:06:53.281Z,2.30
2023-08-14T22:09:20.563Z,2.40
2023-08-14T22:11:47.968Z,2.40
2023-08-14T22:14:15.377Z,2.53
2023-08-14T22:16:42.786Z,2.50
2023-08-14T22:19:10.128Z,2.88
2023-08-14T22:21:37.440Z,2.30
2023-08-14T22:24:04.873Z,2.40
2023-08-14T22:26:32.348Z,2.50
2023-08-14T22:28:59.673Z,2.83
2023-08-14T22:31:27.138Z,2.53
2023-08-14T22:33:54.466Z,2.33
2023-08-14T22:36:21.850Z,2.70
2023-08-14T22:38:49.202Z,2.60
2023-08-14T22:41:16.508Z,2.50
2023-08-14T22:43:43.803Z,2.70
2023-08-14T22:46:11.063Z,2.38
2023-08-14T22:48:38.397Z,2.22
2023-08-14T22:51:06.832Z,2.60
2023-08-14T22:53:34.177Z,2.30
2023-08-14T22:56:01.518Z,1.85
2023-08-14T22:58:28.861Z,2.28
2023-08-14T23:00:56.275Z,2.50
2023-08-14T23:03:23.637Z,2.03
2023-08-14T23:05:50.976Z,2.22
2023-08-14T23:08:18.302Z,1.67
2023-08-14T23:10:46.749Z,2.00
2023-08-14T23:13:14.088Z,1.70
2023-08-14T23:15:41.397Z,1.50
2023-08-14T23:18:08.822Z,2.05
2023-08-14T23:20:39.316Z,1.55
2023-08-14T23:23:09.505Z,1.70
2023-08-14T23:25:36.797Z,1.70
2023-08-14T23:28:04.516Z,1.60
2023-08-14T23:30:31.789Z,1.80
2023-08-14T23:32:59.157Z,1.50
2023-08-14T23:35:26.553Z,1.20
2023-08-14T23:37:53.815Z,1.27
2023-08-14T23:40:21.145Z,1.30
2023-08-14T23:42:48.464Z,1.67
2023-08-14T23:45:15.814Z,1.30
2023-08-14T23:47:43.159Z,1.30
2023-08-14T23:50:10.620Z,1.05
2023-08-14T23:52:38.076Z,1.40
2023-08-14T23:55:05.550Z,1.50
2023-08-14T23:57:32.854Z,1.30
